UAL2381 KDEN-KEWR
Flight info
| Callsign | UAL2381 |
|---|---|
| Flight time | 2h 45m |
| Altitude | 37000 |
| Route | EEONS8 WYNDM OVR DSM EVOTE NELLS KEEHO J584 SLT FQM3 |
| Aircraft | B762/H-SDFGIRWY/S |
Departure
| Time | 2026-05-05 17:02 |
|---|---|
| Airport | Denver International Airport (KDEN) |
Arrival
| Time | 2026-05-05 19:47 |
|---|---|
| Airport | Newark Liberty International Airport (KEWR) |
| Time | Latitude | Longitude | Altitude | Speed | Heading |
|---|---|---|---|---|---|
| 2026-05-05 16:39 | 39.85947 | -104.67136 | 5388 ft | 0 kts | 180° |
| 2026-05-05 16:49 | 39.85952 | -104.67136 | 5243 ft | 3 kts | 180° |
| 2026-05-05 16:50 | 39.85978 | -104.67136 | 5385 ft | 4 kts | 176° |
| 2026-05-05 16:50 | 39.85998 | -104.67145 | 5386 ft | 5 kts | 126° |
| 2026-05-05 16:50 | 39.86002 | -104.67166 | 5384 ft | 3 kts | 91° |
| 2026-05-05 16:50 | 39.86002 | -104.67198 | 5383 ft | 2 kts | 91° |
| 2026-05-05 16:51 | 39.86002 | -104.67199 | 5383 ft | 0 kts | 91° |
| 2026-05-05 16:53 | 39.86002 | -104.67198 | 5383 ft | 0 kts | 91° |
| 2026-05-05 16:53 | 39.86002 | -104.67190 | 5383 ft | 2 kts | 86° |
| 2026-05-05 16:54 | 39.86006 | -104.67158 | 5385 ft | 4 kts | 81° |
| 2026-05-05 16:54 | 39.86008 | -104.67126 | 5387 ft | 3 kts | 86° |
| 2026-05-05 16:54 | 39.86009 | -104.67096 | 5387 ft | 4 kts | 88° |
| 2026-05-05 16:54 | 39.86010 | -104.67062 | 5387 ft | 4 kts | 90° |
| 2026-05-05 16:55 | 39.86009 | -104.67018 | 5387 ft | 6 kts | 90° |
| 2026-05-05 16:55 | 39.86010 | -104.66953 | 5387 ft | 8 kts | 89° |
| 2026-05-05 16:55 | 39.86009 | -104.66868 | 5387 ft | 11 kts | 91° |
| 2026-05-05 16:55 | 39.86007 | -104.66764 | 5387 ft | 11 kts | 91° |
| 2026-05-05 16:56 | 39.86006 | -104.66670 | 5387 ft | 10 kts | 91° |
| 2026-05-05 16:56 | 39.86010 | -104.66586 | 5387 ft | 9 kts | 79° |
| 2026-05-05 16:56 | 39.86018 | -104.66514 | 5388 ft | 7 kts | 88° |
| 2026-05-05 16:56 | 39.86017 | -104.66434 | 5390 ft | 10 kts | 91° |
| 2026-05-05 16:57 | 39.86016 | -104.66338 | 5392 ft | 10 kts | 91° |
| 2026-05-05 16:57 | 39.86024 | -104.66256 | 5390 ft | 10 kts | 54° |
| 2026-05-05 16:57 | 39.86088 | -104.66229 | 5393 ft | 13 kts | 359° |
| 2026-05-05 16:57 | 39.86201 | -104.66231 | 5390 ft | 19 kts | 359° |
| 2026-05-05 16:58 | 39.86347 | -104.66232 | 5390 ft | 22 kts | 1° |
| 2026-05-05 16:58 | 39.86491 | -104.66226 | 5389 ft | 20 kts | 1° |
| 2026-05-05 16:58 | 39.86627 | -104.66224 | 5387 ft | 19 kts | 0° |
| 2026-05-05 16:58 | 39.86766 | -104.66223 | 5382 ft | 21 kts | 0° |
| 2026-05-05 16:59 | 39.86911 | -104.66220 | 5377 ft | 21 kts | 0° |
| 2026-05-05 16:59 | 39.87054 | -104.66219 | 5374 ft | 20 kts | 0° |
| 2026-05-05 16:59 | 39.87195 | -104.66218 | 5372 ft | 20 kts | 0° |
| 2026-05-05 16:59 | 39.87340 | -104.66217 | 5369 ft | 21 kts | 1° |
| 2026-05-05 17:00 | 39.87482 | -104.66214 | 5367 ft | 20 kts | 0° |
| 2026-05-05 17:00 | 39.87613 | -104.66214 | 5368 ft | 17 kts | 1° |
| 2026-05-05 17:00 | 39.87727 | -104.66209 | 5368 ft | 13 kts | 13° |
| 2026-05-05 17:00 | 39.87756 | -104.66127 | 5366 ft | 12 kts | 89° |
| 2026-05-05 17:01 | 39.87752 | -104.65935 | 5363 ft | 46 kts | 90° |
| 2026-05-05 17:01 | 39.87748 | -104.65116 | 5357 ft | 137 kts | 91° |
| 2026-05-05 17:01 | 39.87727 | -104.63512 | 5468 ft | 210 kts | 88° |
| 2026-05-05 17:01 | 39.87581 | -104.61445 | 5969 ft | 254 kts | 106° |
| 2026-05-05 17:02 | 39.86827 | -104.59235 | 6520 ft | 275 kts | 103° |
| 2026-05-05 17:02 | 39.86743 | -104.56760 | 7474 ft | 273 kts | 78° |
| 2026-05-05 17:02 | 39.87170 | -104.54408 | 8868 ft | 269 kts | 73° |
| 2026-05-05 17:02 | 39.87726 | -104.52054 | 9917 ft | 273 kts | 68° |
| 2026-05-05 17:03 | 39.88496 | -104.49730 | 10616 ft | 292 kts | 64° |
| 2026-05-05 17:03 | 39.89396 | -104.47241 | 11146 ft | 314 kts | 65° |
| 2026-05-05 17:03 | 39.90314 | -104.44560 | 11675 ft | 334 kts | 66° |
| 2026-05-05 17:03 | 39.91248 | -104.41699 | 12192 ft | 351 kts | 68° |
| 2026-05-05 17:04 | 39.92150 | -104.38665 | 12531 ft | 367 kts | 72° |
| 2026-05-05 17:04 | 39.92853 | -104.35398 | 12858 ft | 382 kts | 76° |
| 2026-05-05 17:04 | 39.93573 | -104.32004 | 13172 ft | 395 kts | 75° |
| 2026-05-05 17:04 | 39.94342 | -104.28532 | 13650 ft | 401 kts | 75° |
| 2026-05-05 17:05 | 39.95100 | -104.25071 | 14116 ft | 404 kts | 75° |
| 2026-05-05 17:05 | 39.95870 | -104.21527 | 14570 ft | 408 kts | 74° |
| 2026-05-05 17:05 | 39.96632 | -104.17941 | 14992 ft | 412 kts | 75° |
| 2026-05-05 17:05 | 39.97338 | -104.14297 | 15470 ft | 416 kts | 78° |
| 2026-05-05 17:06 | 39.97761 | -104.10543 | 15900 ft | 421 kts | 83° |
| 2026-05-05 17:06 | 39.98156 | -104.06746 | 16332 ft | 425 kts | 82° |
| 2026-05-05 17:06 | 39.98581 | -104.02914 | 16769 ft | 429 kts | 82° |
| 2026-05-05 17:06 | 39.99003 | -103.99049 | 17189 ft | 433 kts | 82° |
| 2026-05-05 17:07 | 39.99389 | -103.95130 | 17610 ft | 437 kts | 83° |
| 2026-05-05 17:07 | 39.99867 | -103.91209 | 17975 ft | 440 kts | 77° |
| 2026-05-05 17:07 | 40.00529 | -103.87298 | 18313 ft | 443 kts | 77° |
| 2026-05-05 17:07 | 40.01150 | -103.83353 | 18740 ft | 443 kts | 78° |
| 2026-05-05 17:08 | 40.01737 | -103.79401 | 19086 ft | 444 kts | 79° |
| 2026-05-05 17:08 | 40.02392 | -103.75455 | 19413 ft | 446 kts | 77° |
| 2026-05-05 17:08 | 40.03063 | -103.71491 | 19746 ft | 448 kts | 77° |
| 2026-05-05 17:08 | 40.03716 | -103.67506 | 20053 ft | 450 kts | 78° |
| 2026-05-05 17:09 | 40.04369 | -103.63507 | 20377 ft | 452 kts | 77° |
| 2026-05-05 17:09 | 40.05027 | -103.59494 | 20713 ft | 454 kts | 77° |
| 2026-05-05 17:09 | 40.05689 | -103.55449 | 21045 ft | 456 kts | 77° |
| 2026-05-05 17:09 | 40.06348 | -103.51397 | 21365 ft | 458 kts | 77° |
| 2026-05-05 17:10 | 40.07012 | -103.47320 | 21714 ft | 459 kts | 78° |
| 2026-05-05 17:10 | 40.07674 | -103.43235 | 22001 ft | 461 kts | 78° |
| 2026-05-05 17:10 | 40.08339 | -103.39122 | 22347 ft | 463 kts | 78° |
| 2026-05-05 17:10 | 40.09004 | -103.34999 | 22634 ft | 465 kts | 78° |
| 2026-05-05 17:11 | 40.09671 | -103.30862 | 22893 ft | 467 kts | 78° |
| 2026-05-05 17:11 | 40.10338 | -103.26703 | 23154 ft | 469 kts | 78° |
| 2026-05-05 17:11 | 40.10999 | -103.22580 | 23383 ft | 471 kts | 78° |
| 2026-05-05 17:11 | 40.11671 | -103.18374 | 23571 ft | 473 kts | 78° |
| 2026-05-05 17:12 | 40.12342 | -103.14166 | 23753 ft | 474 kts | 78° |
| 2026-05-05 17:12 | 40.13016 | -103.09928 | 23760 ft | 478 kts | 78° |
| 2026-05-05 17:12 | 40.13693 | -103.05663 | 23944 ft | 480 kts | 78° |
| 2026-05-05 17:12 | 40.14371 | -103.01373 | 24095 ft | 481 kts | 78° |
| 2026-05-05 17:13 | 40.15048 | -102.97087 | 24258 ft | 482 kts | 78° |
| 2026-05-05 17:13 | 40.15726 | -102.92785 | 24408 ft | 483 kts | 78° |
| 2026-05-05 17:13 | 40.16402 | -102.88476 | 24548 ft | 485 kts | 78° |
| 2026-05-05 17:13 | 40.17080 | -102.84150 | 24686 ft | 486 kts | 78° |
| 2026-05-05 17:14 | 40.17757 | -102.79815 | 24816 ft | 488 kts | 78° |
| 2026-05-05 17:14 | 40.18434 | -102.75467 | 24957 ft | 489 kts | 77° |
| 2026-05-05 17:14 | 40.19106 | -102.71145 | 25103 ft | 491 kts | 77° |
| 2026-05-05 17:14 | 40.19786 | -102.66762 | 25272 ft | 492 kts | 77° |
| 2026-05-05 17:15 | 40.20465 | -102.62368 | 25429 ft | 494 kts | 77° |
| 2026-05-05 17:15 | 40.21147 | -102.57950 | 25589 ft | 495 kts | 77° |
| 2026-05-05 17:15 | 40.21828 | -102.53523 | 25740 ft | 497 kts | 77° |
| 2026-05-05 17:15 | 40.22508 | -102.49085 | 25875 ft | 498 kts | 77° |
| 2026-05-05 17:16 | 40.23190 | -102.44627 | 26007 ft | 499 kts | 77° |
| 2026-05-05 17:16 | 40.23871 | -102.40163 | 26145 ft | 500 kts | 77° |
| 2026-05-05 17:16 | 40.24553 | -102.35678 | 26175 ft | 504 kts | 77° |
| 2026-05-05 17:16 | 40.25237 | -102.31178 | 26310 ft | 505 kts | 77° |
| 2026-05-05 17:17 | 40.25689 | -102.28188 | 26385 ft | 506 kts | 77° |
| 2026-05-05 17:17 | 40.26374 | -102.23650 | 26501 ft | 507 kts | 77° |
| 2026-05-05 17:17 | 40.27279 | -102.17636 | 26654 ft | 509 kts | 77° |
| 2026-05-05 17:17 | 40.27739 | -102.14569 | 26724 ft | 509 kts | 78° |
| 2026-05-05 17:18 | 40.28422 | -102.10012 | 26834 ft | 510 kts | 77° |
| 2026-05-05 17:18 | 40.29106 | -102.05436 | 26944 ft | 511 kts | 78° |
| 2026-05-05 17:18 | 40.29787 | -102.00859 | 27054 ft | 512 kts | 77° |
| 2026-05-05 17:18 | 40.30468 | -101.96270 | 27165 ft | 513 kts | 78° |
| 2026-05-05 17:19 | 40.31148 | -101.91677 | 27270 ft | 514 kts | 77° |
| 2026-05-05 17:19 | 40.31829 | -101.87067 | 27361 ft | 515 kts | 78° |
| 2026-05-05 17:19 | 40.32499 | -101.82513 | 27464 ft | 516 kts | 78° |
| 2026-05-05 17:19 | 40.33177 | -101.77893 | 27554 ft | 517 kts | 78° |
| 2026-05-05 17:20 | 40.33854 | -101.73269 | 27639 ft | 517 kts | 78° |
| 2026-05-05 17:20 | 40.34531 | -101.68630 | 27729 ft | 518 kts | 78° |
| 2026-05-05 17:20 | 40.35207 | -101.63984 | 27869 ft | 518 kts | 78° |
| 2026-05-05 17:20 | 40.35881 | -101.59343 | 27956 ft | 518 kts | 78° |
| 2026-05-05 17:21 | 40.37224 | -101.50041 | 28109 ft | 520 kts | 78° |
| 2026-05-05 17:22 | 40.39357 | -101.36064 | 28291 ft | 522 kts | 76° |
| 2026-05-05 17:22 | 40.40874 | -101.26751 | 28438 ft | 523 kts | 76° |
| 2026-05-05 17:23 | 40.42396 | -101.17400 | 28568 ft | 524 kts | 76° |
| 2026-05-05 17:23 | 40.43901 | -101.08086 | 28702 ft | 525 kts | 76° |
| 2026-05-05 17:24 | 40.45410 | -100.98682 | 28821 ft | 526 kts | 76° |
| 2026-05-05 17:24 | 40.46841 | -100.89730 | 28943 ft | 527 kts | 76° |
| 2026-05-05 17:25 | 40.48341 | -100.80285 | 29042 ft | 528 kts | 76° |
| 2026-05-05 17:25 | 40.49833 | -100.70832 | 29142 ft | 529 kts | 76° |
| 2026-05-05 17:26 | 40.51323 | -100.61351 | 29244 ft | 530 kts | 76° |
| 2026-05-05 17:26 | 40.52806 | -100.51849 | 29404 ft | 530 kts | 76° |
| 2026-05-05 17:26 | 40.53543 | -100.47117 | 29602 ft | 527 kts | 76° |
| 2026-05-05 17:27 | 40.54274 | -100.42400 | 29796 ft | 525 kts | 76° |
| 2026-05-05 17:27 | 40.54990 | -100.37768 | 29964 ft | 523 kts | 76° |
| 2026-05-05 17:27 | 40.55712 | -100.33082 | 30135 ft | 521 kts | 76° |
| 2026-05-05 17:27 | 40.56432 | -100.28406 | 30303 ft | 520 kts | 76° |
| 2026-05-05 17:28 | 40.57145 | -100.23755 | 30478 ft | 519 kts | 76° |
| 2026-05-05 17:28 | 40.57857 | -100.19097 | 30662 ft | 518 kts | 76° |
| 2026-05-05 17:28 | 40.58563 | -100.14468 | 30832 ft | 517 kts | 76° |
| 2026-05-05 17:28 | 40.59266 | -100.09835 | 31064 ft | 514 kts | 76° |
| 2026-05-05 17:29 | 40.59965 | -100.05230 | 31314 ft | 512 kts | 75° |
| 2026-05-05 17:29 | 40.60659 | -100.00639 | 31563 ft | 510 kts | 75° |
| 2026-05-05 17:29 | 40.61349 | -99.96064 | 31819 ft | 508 kts | 75° |
| 2026-05-05 17:29 | 40.62033 | -99.91513 | 32077 ft | 506 kts | 75° |
| 2026-05-05 17:30 | 40.62714 | -99.86971 | 32336 ft | 504 kts | 75° |
| 2026-05-05 17:30 | 40.63392 | -99.82433 | 32527 ft | 505 kts | 74° |
| 2026-05-05 17:30 | 40.64059 | -99.77959 | 32691 ft | 506 kts | 74° |
| 2026-05-05 17:30 | 40.64735 | -99.73410 | 32849 ft | 506 kts | 74° |
| 2026-05-05 17:31 | 40.65409 | -99.68863 | 33042 ft | 506 kts | 74° |
| 2026-05-05 17:31 | 40.66082 | -99.64309 | 33228 ft | 506 kts | 74° |
| 2026-05-05 17:31 | 40.66762 | -99.59692 | 33403 ft | 507 kts | 74° |
| 2026-05-05 17:31 | 40.67431 | -99.55141 | 33590 ft | 507 kts | 73° |
| 2026-05-05 17:32 | 40.68091 | -99.50639 | 33773 ft | 507 kts | 73° |
| 2026-05-05 17:32 | 40.68756 | -99.46084 | 33946 ft | 506 kts | 73° |
| 2026-05-05 17:32 | 40.69420 | -99.41527 | 34095 ft | 506 kts | 73° |
| 2026-05-05 17:32 | 40.70082 | -99.36975 | 34269 ft | 506 kts | 73° |
| 2026-05-05 17:33 | 40.70741 | -99.32417 | 34429 ft | 505 kts | 73° |
| 2026-05-05 17:33 | 40.71382 | -99.27977 | 34590 ft | 505 kts | 73° |
| 2026-05-05 17:33 | 40.72023 | -99.23534 | 34755 ft | 504 kts | 73° |
| 2026-05-05 17:33 | 40.72674 | -99.18996 | 34910 ft | 504 kts | 73° |
| 2026-05-05 17:34 | 40.73326 | -99.14447 | 35006 ft | 505 kts | 74° |
| 2026-05-05 17:34 | 40.73975 | -99.09893 | 35132 ft | 506 kts | 74° |
| 2026-05-05 17:34 | 40.74624 | -99.05333 | 35258 ft | 506 kts | 74° |
| 2026-05-05 17:34 | 40.75271 | -99.00778 | 35378 ft | 506 kts | 74° |
| 2026-05-05 17:35 | 40.75918 | -98.96207 | 35499 ft | 506 kts | 74° |
| 2026-05-05 17:35 | 40.76563 | -98.91635 | 35618 ft | 506 kts | 74° |
| 2026-05-05 17:35 | 40.77197 | -98.87122 | 35736 ft | 506 kts | 74° |
| 2026-05-05 17:35 | 40.77837 | -98.82556 | 35858 ft | 506 kts | 74° |
| 2026-05-05 17:36 | 40.78476 | -98.77986 | 35982 ft | 506 kts | 74° |
| 2026-05-05 17:36 | 40.79113 | -98.73420 | 36106 ft | 506 kts | 74° |
| 2026-05-05 17:36 | 40.79746 | -98.68857 | 36250 ft | 505 kts | 74° |
| 2026-05-05 17:36 | 40.80378 | -98.64295 | 36374 ft | 505 kts | 73° |
| 2026-05-05 17:37 | 40.81008 | -98.59741 | 36506 ft | 504 kts | 73° |
| 2026-05-05 17:37 | 40.81635 | -98.55182 | 36685 ft | 504 kts | 73° |
| 2026-05-05 17:37 | 40.82260 | -98.50636 | 36761 ft | 504 kts | 73° |
| 2026-05-05 17:38 | 40.83511 | -98.41480 | 36814 ft | 508 kts | 74° |
| 2026-05-05 17:38 | 40.84766 | -98.32240 | 36851 ft | 513 kts | 74° |
| 2026-05-05 17:39 | 40.86027 | -98.22907 | 36833 ft | 518 kts | 74° |
| 2026-05-05 17:39 | 40.87280 | -98.13542 | 36848 ft | 523 kts | 74° |
| 2026-05-05 17:40 | 40.88549 | -98.04023 | 36845 ft | 528 kts | 74° |
| 2026-05-05 17:40 | 40.89820 | -97.94425 | 36863 ft | 532 kts | 74° |
| 2026-05-05 17:41 | 40.91091 | -97.84752 | 36848 ft | 536 kts | 75° |
| 2026-05-05 17:41 | 40.92364 | -97.75002 | 36836 ft | 540 kts | 75° |
| 2026-05-05 17:42 | 40.93638 | -97.65179 | 36834 ft | 543 kts | 75° |
| 2026-05-05 17:42 | 40.94911 | -97.55300 | 36848 ft | 548 kts | 75° |
| 2026-05-05 17:43 | 40.96192 | -97.45283 | 36822 ft | 557 kts | 75° |
| 2026-05-05 17:43 | 40.97460 | -97.35290 | 36803 ft | 547 kts | 75° |
| 2026-05-05 17:44 | 40.98657 | -97.25843 | 37013 ft | 551 kts | 78° |
| 2026-05-05 17:44 | 40.99899 | -97.15802 | 36971 ft | 558 kts | 78° |
| 2026-05-05 17:45 | 41.01179 | -97.05575 | 37023 ft | 567 kts | 79° |
| 2026-05-05 17:45 | 41.02460 | -96.95186 | 37026 ft | 576 kts | 79° |
| 2026-05-05 17:46 | 41.03754 | -96.84614 | 37034 ft | 584 kts | 79° |
| 2026-05-05 17:46 | 41.05052 | -96.73919 | 37027 ft | 592 kts | 79° |
| 2026-05-05 17:47 | 41.06348 | -96.63160 | 37007 ft | 588 kts | 79° |
| 2026-05-05 17:47 | 41.07614 | -96.52566 | 36973 ft | 585 kts | 79° |
| 2026-05-05 17:48 | 41.08878 | -96.41890 | 36994 ft | 587 kts | 79° |
| 2026-05-05 17:48 | 41.10134 | -96.31203 | 37010 ft | 586 kts | 79° |
| 2026-05-05 17:49 | 41.11379 | -96.20527 | 37016 ft | 585 kts | 79° |
| 2026-05-05 17:49 | 41.12615 | -96.09833 | 37026 ft | 588 kts | 80° |
| 2026-05-05 17:50 | 41.13844 | -95.99113 | 37004 ft | 586 kts | 80° |
| 2026-05-05 17:50 | 41.15056 | -95.88442 | 37019 ft | 585 kts | 80° |
| 2026-05-05 17:51 | 41.16255 | -95.77739 | 37015 ft | 588 kts | 81° |
| 2026-05-05 17:51 | 41.17642 | -95.67051 | 37000 ft | 587 kts | 77° |
| 2026-05-05 17:52 | 41.19094 | -95.56462 | 36969 ft | 586 kts | 77° |
| 2026-05-05 17:52 | 41.20556 | -95.45817 | 36981 ft | 587 kts | 78° |
| 2026-05-05 17:53 | 41.22013 | -95.35120 | 36988 ft | 588 kts | 78° |
| 2026-05-05 17:53 | 41.23458 | -95.24417 | 37004 ft | 588 kts | 78° |
| 2026-05-05 17:54 | 41.24890 | -95.13736 | 36976 ft | 586 kts | 78° |
| 2026-05-05 17:54 | 41.26314 | -95.03039 | 36984 ft | 588 kts | 78° |
| 2026-05-05 17:55 | 41.27731 | -94.92313 | 36978 ft | 589 kts | 78° |
| 2026-05-05 17:55 | 41.29137 | -94.81596 | 36974 ft | 588 kts | 78° |
| 2026-05-05 17:56 | 41.30532 | -94.70871 | 36971 ft | 589 kts | 78° |
| 2026-05-05 17:56 | 41.31912 | -94.60188 | 36962 ft | 590 kts | 78° |
| 2026-05-05 17:57 | 41.33291 | -94.49429 | 36957 ft | 589 kts | 78° |
| 2026-05-05 17:57 | 41.34657 | -94.38684 | 36963 ft | 590 kts | 78° |
| 2026-05-05 17:58 | 41.36018 | -94.27904 | 36960 ft | 591 kts | 78° |
| 2026-05-05 17:58 | 41.37368 | -94.17115 | 36959 ft | 591 kts | 78° |
| 2026-05-05 17:59 | 41.38708 | -94.06334 | 36959 ft | 590 kts | 78° |
| 2026-05-05 17:59 | 41.40039 | -93.95535 | 36962 ft | 591 kts | 78° |
| 2026-05-05 18:00 | 41.41362 | -93.84720 | 36961 ft | 592 kts | 79° |
| 2026-05-05 18:00 | 41.42675 | -93.73886 | 36970 ft | 591 kts | 78° |
| 2026-05-05 18:01 | 41.43979 | -93.63147 | 36965 ft | 591 kts | 82° |
| 2026-05-05 18:01 | 41.45000 | -93.52284 | 36963 ft | 591 kts | 81° |
| 2026-05-05 18:02 | 41.46042 | -93.41401 | 36969 ft | 593 kts | 81° |
| 2026-05-05 18:02 | 41.47085 | -93.30493 | 36964 ft | 592 kts | 81° |
| 2026-05-05 18:03 | 41.48114 | -93.19612 | 36970 ft | 591 kts | 81° |
| 2026-05-05 18:03 | 41.49133 | -93.08725 | 36967 ft | 592 kts | 81° |
| 2026-05-05 18:04 | 41.50138 | -92.97886 | 36960 ft | 592 kts | 81° |
| 2026-05-05 18:04 | 41.51137 | -92.87001 | 36963 ft | 590 kts | 81° |
| 2026-05-05 18:05 | 41.52119 | -92.76177 | 36969 ft | 591 kts | 81° |
| 2026-05-05 18:05 | 41.53098 | -92.65274 | 36971 ft | 592 kts | 81° |
| 2026-05-05 18:06 | 41.54066 | -92.54392 | 36972 ft | 588 kts | 81° |
| 2026-05-05 18:06 | 41.55018 | -92.43547 | 36963 ft | 589 kts | 81° |
| 2026-05-05 18:07 | 41.55792 | -92.34648 | 36961 ft | 591 kts | 82° |
| 2026-05-05 18:07 | 41.56724 | -92.23809 | 36950 ft | 590 kts | 81° |
| 2026-05-05 18:08 | 41.57649 | -92.12965 | 36944 ft | 587 kts | 82° |
| 2026-05-05 18:08 | 41.58565 | -92.02089 | 36950 ft | 589 kts | 82° |
| 2026-05-05 18:09 | 41.59471 | -91.91191 | 36946 ft | 590 kts | 82° |
| 2026-05-05 18:09 | 41.60365 | -91.80327 | 36960 ft | 587 kts | 82° |
| 2026-05-05 18:10 | 41.61247 | -91.69472 | 36969 ft | 587 kts | 82° |
| 2026-05-05 18:10 | 41.62114 | -91.58680 | 36979 ft | 589 kts | 82° |
| 2026-05-05 18:11 | 41.62977 | -91.47793 | 36974 ft | 587 kts | 82° |
| 2026-05-05 18:11 | 41.63828 | -91.36949 | 36966 ft | 586 kts | 82° |
| 2026-05-05 18:12 | 41.64668 | -91.26107 | 36963 ft | 588 kts | 82° |
| 2026-05-05 18:12 | 41.65499 | -91.15226 | 36941 ft | 588 kts | 82° |
| 2026-05-05 18:13 | 41.66318 | -91.04388 | 36924 ft | 584 kts | 82° |
| 2026-05-05 18:13 | 41.67123 | -90.93590 | 36937 ft | 585 kts | 82° |
| 2026-05-05 18:14 | 41.67920 | -90.82749 | 36941 ft | 586 kts | 82° |
| 2026-05-05 18:14 | 41.68708 | -90.71900 | 36938 ft | 584 kts | 82° |
| 2026-05-05 18:15 | 41.69484 | -90.61098 | 36947 ft | 582 kts | 82° |
| 2026-05-05 18:15 | 41.70247 | -90.50308 | 36950 ft | 585 kts | 82° |
| 2026-05-05 18:16 | 41.71004 | -90.39444 | 36940 ft | 584 kts | 82° |
| 2026-05-05 18:16 | 41.71741 | -90.28743 | 36941 ft | 580 kts | 82° |
| 2026-05-05 18:17 | 41.72471 | -90.17985 | 36946 ft | 581 kts | 82° |
| 2026-05-05 18:17 | 41.73196 | -90.07161 | 36937 ft | 583 kts | 83° |
| 2026-05-05 18:18 | 41.73906 | -89.96389 | 36938 ft | 581 kts | 83° |
| 2026-05-05 18:18 | 41.74606 | -89.85641 | 36932 ft | 577 kts | 83° |
| 2026-05-05 18:19 | 41.75198 | -89.76413 | 36939 ft | 579 kts | 83° |
| 2026-05-05 18:19 | 41.75879 | -89.65651 | 36939 ft | 581 kts | 83° |
| 2026-05-05 18:20 | 41.76549 | -89.54883 | 36935 ft | 579 kts | 83° |
| 2026-05-05 18:20 | 41.77209 | -89.44135 | 36935 ft | 579 kts | 83° |
| 2026-05-05 18:21 | 41.77861 | -89.33363 | 36924 ft | 581 kts | 83° |
| 2026-05-05 18:21 | 41.78501 | -89.22578 | 36925 ft | 579 kts | 83° |
| 2026-05-05 18:22 | 41.79131 | -89.11844 | 36918 ft | 577 kts | 83° |
| 2026-05-05 18:22 | 41.79748 | -89.01118 | 36902 ft | 578 kts | 83° |
| 2026-05-05 18:23 | 41.80358 | -88.90357 | 36904 ft | 579 kts | 83° |
| 2026-05-05 18:23 | 41.80953 | -88.79662 | 36907 ft | 577 kts | 83° |
| 2026-05-05 18:24 | 41.81541 | -88.68957 | 36906 ft | 575 kts | 83° |
| 2026-05-05 18:24 | 41.82117 | -88.58240 | 36912 ft | 578 kts | 84° |
| 2026-05-05 18:25 | 41.82686 | -88.47486 | 36909 ft | 577 kts | 84° |
| 2026-05-05 18:25 | 41.83243 | -88.36772 | 36907 ft | 574 kts | 83° |
| 2026-05-05 18:26 | 41.83788 | -88.26090 | 36895 ft | 575 kts | 84° |
| 2026-05-05 18:26 | 41.84324 | -88.15382 | 36895 ft | 576 kts | 84° |
| 2026-05-05 18:27 | 41.84847 | -88.04734 | 36887 ft | 574 kts | 84° |
| 2026-05-05 18:27 | 41.85363 | -87.94063 | 36879 ft | 573 kts | 84° |
| 2026-05-05 18:28 | 41.86116 | -87.78043 | 36887 ft | 575 kts | 84° |
| 2026-05-05 18:28 | 41.86602 | -87.67430 | 36878 ft | 573 kts | 84° |
| 2026-05-05 18:29 | 41.87078 | -87.56874 | 36875 ft | 569 kts | 84° |
| 2026-05-05 18:29 | 41.87547 | -87.46228 | 36885 ft | 572 kts | 84° |
| 2026-05-05 18:30 | 41.88007 | -87.35549 | 36903 ft | 573 kts | 84° |
| 2026-05-05 18:30 | 41.88456 | -87.24899 | 36883 ft | 568 kts | 84° |
| 2026-05-05 18:31 | 41.88890 | -87.14393 | 36892 ft | 568 kts | 84° |
| 2026-05-05 18:31 | 41.89319 | -87.03766 | 36904 ft | 571 kts | 84° |
| 2026-05-05 18:32 | 41.89737 | -86.93142 | 36886 ft | 569 kts | 85° |
| 2026-05-05 18:32 | 41.90143 | -86.82577 | 36899 ft | 565 kts | 85° |
| 2026-05-05 18:33 | 41.90539 | -86.72039 | 36908 ft | 568 kts | 85° |
| 2026-05-05 18:33 | 41.90928 | -86.61431 | 36900 ft | 568 kts | 85° |
| 2026-05-05 18:34 | 41.91299 | -86.51052 | 36894 ft | 566 kts | 85° |
| 2026-05-05 18:34 | 41.91665 | -86.40520 | 36891 ft | 564 kts | 85° |
| 2026-05-05 18:35 | 41.92023 | -86.29975 | 36900 ft | 567 kts | 85° |
| 2026-05-05 18:35 | 41.92371 | -86.19410 | 36883 ft | 566 kts | 85° |
| 2026-05-05 18:36 | 41.92708 | -86.08871 | 36894 ft | 563 kts | 86° |
| 2026-05-05 18:36 | 41.93036 | -85.98368 | 36889 ft | 563 kts | 86° |
| 2026-05-05 18:37 | 41.93355 | -85.87827 | 36886 ft | 565 kts | 86° |
| 2026-05-05 18:37 | 41.93661 | -85.77368 | 36876 ft | 564 kts | 86° |
| 2026-05-05 18:38 | 41.93959 | -85.66844 | 36883 ft | 563 kts | 86° |
| 2026-05-05 18:38 | 41.94249 | -85.56323 | 36886 ft | 565 kts | 86° |
| 2026-05-05 18:39 | 41.94530 | -85.45779 | 36881 ft | 565 kts | 86° |
| 2026-05-05 18:39 | 41.94799 | -85.35274 | 36968 ft | 560 kts | 87° |
| 2026-05-05 18:40 | 41.95099 | -85.24802 | 36907 ft | 562 kts | 86° |
| 2026-05-05 18:40 | 41.95082 | -85.14284 | 36885 ft | 561 kts | 89° |
| 2026-05-05 18:41 | 41.95054 | -85.03836 | 36865 ft | 561 kts | 90° |
| 2026-05-05 18:41 | 41.95012 | -84.93424 | 36876 ft | 559 kts | 90° |
| 2026-05-05 18:42 | 41.94961 | -84.82994 | 36871 ft | 559 kts | 90° |
| 2026-05-05 18:42 | 41.94902 | -84.72525 | 36878 ft | 560 kts | 90° |
| 2026-05-05 18:43 | 41.94834 | -84.62112 | 36862 ft | 557 kts | 90° |
| 2026-05-05 18:43 | 41.94755 | -84.51721 | 36871 ft | 556 kts | 90° |
| 2026-05-05 18:44 | 41.94668 | -84.41288 | 36870 ft | 559 kts | 90° |
| 2026-05-05 18:44 | 41.94571 | -84.30891 | 36870 ft | 557 kts | 90° |
| 2026-05-05 18:45 | 41.94464 | -84.20468 | 36873 ft | 554 kts | 91° |
| 2026-05-05 18:45 | 41.94350 | -84.10156 | 36885 ft | 555 kts | 91° |
| 2026-05-05 18:46 | 41.94226 | -83.99768 | 36886 ft | 556 kts | 91° |
| 2026-05-05 18:46 | 41.94107 | -83.90496 | 36865 ft | 554 kts | 91° |
| 2026-05-05 18:47 | 41.93964 | -83.80165 | 36861 ft | 553 kts | 91° |
| 2026-05-05 18:47 | 41.93814 | -83.69817 | 36863 ft | 554 kts | 91° |
| 2026-05-05 18:48 | 41.93653 | -83.59467 | 36860 ft | 554 kts | 91° |
| 2026-05-05 18:48 | 41.93451 | -83.49141 | 36853 ft | 552 kts | 90° |
| 2026-05-05 18:49 | 41.93451 | -83.38819 | 36840 ft | 553 kts | 91° |
| 2026-05-05 18:49 | 41.93404 | -83.28478 | 36836 ft | 554 kts | 91° |
| 2026-05-05 18:50 | 41.93349 | -83.18142 | 36850 ft | 552 kts | 91° |
| 2026-05-05 18:50 | 41.93283 | -83.07886 | 36851 ft | 554 kts | 91° |
| 2026-05-05 18:51 | 41.93209 | -82.97533 | 36848 ft | 554 kts | 91° |
| 2026-05-05 18:51 | 41.93125 | -82.87205 | 36839 ft | 553 kts | 91° |
| 2026-05-05 18:52 | 41.93048 | -82.78611 | 36840 ft | 553 kts | 91° |
| 2026-05-05 18:52 | 41.92947 | -82.68292 | 36835 ft | 552 kts | 91° |
| 2026-05-05 18:53 | 41.92836 | -82.57980 | 36845 ft | 551 kts | 91° |
| 2026-05-05 18:53 | 41.92717 | -82.47665 | 36839 ft | 553 kts | 91° |
| 2026-05-05 18:54 | 41.92587 | -82.37343 | 36827 ft | 552 kts | 91° |
| 2026-05-05 18:54 | 41.92452 | -82.27058 | 36824 ft | 550 kts | 91° |
| 2026-05-05 18:55 | 41.92304 | -82.16773 | 36829 ft | 552 kts | 91° |
| 2026-05-05 18:55 | 41.92148 | -82.06475 | 36828 ft | 552 kts | 91° |
| 2026-05-05 18:56 | 41.91986 | -81.96171 | 36826 ft | 552 kts | 92° |
| 2026-05-05 18:56 | 41.91807 | -81.85837 | 36822 ft | 554 kts | 92° |
| 2026-05-05 18:57 | 41.91099 | -81.75654 | 36817 ft | 551 kts | 99° |
| 2026-05-05 18:57 | 41.90204 | -81.65424 | 36796 ft | 552 kts | 99° |
| 2026-05-05 18:58 | 41.89287 | -81.55199 | 36826 ft | 552 kts | 99° |
| 2026-05-05 18:58 | 41.88362 | -81.44997 | 36835 ft | 551 kts | 99° |
| 2026-05-05 18:59 | 41.87430 | -81.34783 | 36846 ft | 551 kts | 99° |
| 2026-05-05 18:59 | 41.86484 | -81.24557 | 36832 ft | 552 kts | 98° |
| 2026-05-05 19:00 | 41.85528 | -81.14337 | 36805 ft | 551 kts | 98° |
| 2026-05-05 19:00 | 41.84578 | -81.04121 | 36821 ft | 552 kts | 98° |
| 2026-05-05 19:01 | 41.83604 | -80.93919 | 36836 ft | 553 kts | 97° |
| 2026-05-05 19:01 | 41.82624 | -80.83706 | 36843 ft | 550 kts | 97° |
| 2026-05-05 19:02 | 41.81647 | -80.73610 | 36843 ft | 549 kts | 97° |
| 2026-05-05 19:02 | 41.80653 | -80.63438 | 36852 ft | 551 kts | 97° |
| 2026-05-05 19:03 | 41.79675 | -80.53521 | 36811 ft | 551 kts | 97° |
| 2026-05-05 19:03 | 41.78667 | -80.43392 | 36820 ft | 546 kts | 98° |
| 2026-05-05 19:04 | 41.77653 | -80.33302 | 36839 ft | 548 kts | 98° |
| 2026-05-05 19:04 | 41.76625 | -80.23159 | 36835 ft | 549 kts | 98° |
| 2026-05-05 19:05 | 41.75590 | -80.13036 | 36830 ft | 547 kts | 98° |
| 2026-05-05 19:05 | 41.74551 | -80.02974 | 36836 ft | 545 kts | 98° |
| 2026-05-05 19:06 | 41.73504 | -79.92908 | 36818 ft | 547 kts | 98° |
| 2026-05-05 19:06 | 41.72444 | -79.82815 | 36830 ft | 547 kts | 98° |
| 2026-05-05 19:07 | 41.71387 | -79.72838 | 36803 ft | 542 kts | 98° |
| 2026-05-05 19:07 | 41.70320 | -79.62847 | 36806 ft | 543 kts | 98° |
| 2026-05-05 19:08 | 41.69235 | -79.52769 | 36810 ft | 544 kts | 98° |
| 2026-05-05 19:08 | 41.68153 | -79.42813 | 36814 ft | 543 kts | 98° |
| 2026-05-05 19:09 | 41.67063 | -79.32860 | 36810 ft | 538 kts | 98° |
| 2026-05-05 19:09 | 41.65971 | -79.22955 | 36824 ft | 540 kts | 98° |
| 2026-05-05 19:10 | 41.64862 | -79.13021 | 36791 ft | 539 kts | 98° |
| 2026-05-05 19:10 | 41.63749 | -79.03108 | 36814 ft | 539 kts | 98° |
| 2026-05-05 19:11 | 41.62667 | -78.93534 | 36810 ft | 535 kts | 98° |
| 2026-05-05 19:11 | 41.61546 | -78.83717 | 36812 ft | 535 kts | 98° |
| 2026-05-05 19:12 | 41.60412 | -78.73850 | 36828 ft | 537 kts | 98° |
| 2026-05-05 19:12 | 41.59273 | -78.64014 | 36832 ft | 534 kts | 99° |
| 2026-05-05 19:13 | 41.58132 | -78.54249 | 36831 ft | 532 kts | 99° |
| 2026-05-05 19:13 | 41.57016 | -78.44757 | 36833 ft | 535 kts | 99° |
| 2026-05-05 19:14 | 41.55852 | -78.34939 | 36833 ft | 534 kts | 99° |
| 2026-05-05 19:14 | 41.54689 | -78.25186 | 36830 ft | 532 kts | 99° |
| 2026-05-05 19:15 | 41.53519 | -78.15466 | 36841 ft | 534 kts | 99° |
| 2026-05-05 19:15 | 41.52335 | -78.05686 | 36820 ft | 534 kts | 99° |
| 2026-05-05 19:16 | 41.51057 | -77.95926 | 36826 ft | 533 kts | 98° |
| 2026-05-05 19:16 | 41.49789 | -77.86212 | 36814 ft | 529 kts | 102° |
| 2026-05-05 19:17 | 41.48409 | -77.76587 | 36806 ft | 530 kts | 101° |
| 2026-05-05 19:17 | 41.47015 | -77.66910 | 36795 ft | 531 kts | 101° |
| 2026-05-05 19:18 | 41.45633 | -77.57260 | 36802 ft | 529 kts | 101° |
| 2026-05-05 19:18 | 41.44252 | -77.47716 | 36827 ft | 526 kts | 101° |
| 2026-05-05 19:19 | 41.42860 | -77.38124 | 36831 ft | 528 kts | 101° |
| 2026-05-05 19:19 | 41.41459 | -77.28535 | 36828 ft | 525 kts | 101° |
| 2026-05-05 19:20 | 41.40054 | -77.18977 | 36782 ft | 524 kts | 101° |
| 2026-05-05 19:20 | 41.38652 | -77.09504 | 36785 ft | 521 kts | 101° |
| 2026-05-05 19:21 | 41.37946 | -77.04746 | 36601 ft | 523 kts | 101° |
| 2026-05-05 19:21 | 41.37235 | -76.99979 | 35979 ft | 525 kts | 101° |
| 2026-05-05 19:21 | 41.36532 | -76.95270 | 35124 ft | 527 kts | 101° |
| 2026-05-05 19:21 | 41.35804 | -76.90418 | 34052 ft | 530 kts | 101° |
| 2026-05-05 19:22 | 41.35080 | -76.85582 | 32770 ft | 534 kts | 101° |
| 2026-05-05 19:22 | 41.34335 | -76.80778 | 31647 ft | 534 kts | 102° |
| 2026-05-05 19:22 | 41.33473 | -76.76010 | 30566 ft | 532 kts | 108° |
| 2026-05-05 19:22 | 41.32225 | -76.71385 | 29721 ft | 524 kts | 111° |
| 2026-05-05 19:23 | 41.31035 | -76.66880 | 28848 ft | 514 kts | 110° |
| 2026-05-05 19:23 | 41.29844 | -76.62417 | 27988 ft | 505 kts | 111° |
| 2026-05-05 19:23 | 41.28674 | -76.58074 | 27132 ft | 496 kts | 111° |
| 2026-05-05 19:23 | 41.27530 | -76.53803 | 26310 ft | 487 kts | 111° |
| 2026-05-05 19:24 | 41.26397 | -76.49589 | 25457 ft | 478 kts | 111° |
| 2026-05-05 19:24 | 41.25285 | -76.45457 | 24658 ft | 469 kts | 111° |
| 2026-05-05 19:24 | 41.24197 | -76.41424 | 23834 ft | 461 kts | 111° |
| 2026-05-05 19:24 | 41.23121 | -76.37437 | 22947 ft | 454 kts | 112° |
| 2026-05-05 19:25 | 41.22059 | -76.33510 | 22107 ft | 445 kts | 112° |
| 2026-05-05 19:25 | 41.21024 | -76.29688 | 21357 ft | 434 kts | 112° |
| 2026-05-05 19:25 | 41.20008 | -76.25943 | 20305 ft | 432 kts | 112° |
| 2026-05-05 19:25 | 41.18999 | -76.22231 | 19127 ft | 433 kts | 113° |
| 2026-05-05 19:26 | 41.17973 | -76.18460 | 17850 ft | 436 kts | 113° |
| 2026-05-05 19:26 | 41.16937 | -76.14658 | 16366 ft | 440 kts | 114° |
| 2026-05-05 19:26 | 41.15880 | -76.10788 | 14856 ft | 445 kts | 114° |
| 2026-05-05 19:26 | 41.14864 | -76.07058 | 14367 ft | 424 kts | 114° |
| 2026-05-05 19:27 | 41.13884 | -76.03476 | 13917 ft | 403 kts | 115° |
| 2026-05-05 19:27 | 41.12938 | -76.00040 | 13399 ft | 386 kts | 115° |
| 2026-05-05 19:27 | 41.12034 | -75.96763 | 12853 ft | 371 kts | 115° |
| 2026-05-05 19:27 | 41.11170 | -75.93615 | 12271 ft | 358 kts | 115° |
| 2026-05-05 19:28 | 41.10336 | -75.90579 | 11751 ft | 346 kts | 115° |
| 2026-05-05 19:28 | 41.09524 | -75.87633 | 11118 ft | 337 kts | 115° |
| 2026-05-05 19:28 | 41.08723 | -75.84740 | 10407 ft | 332 kts | 115° |
| 2026-05-05 19:28 | 41.07925 | -75.81860 | 9660 ft | 330 kts | 115° |
| 2026-05-05 19:29 | 41.07144 | -75.79021 | 8791 ft | 319 kts | 115° |
| 2026-05-05 19:29 | 41.06435 | -75.76421 | 7412 ft | 299 kts | 116° |
| 2026-05-05 19:29 | 41.05715 | -75.73869 | 7189 ft | 290 kts | 116° |
| 2026-05-05 19:29 | 41.05019 | -75.71381 | 7114 ft | 289 kts | 116° |
| 2026-05-05 19:30 | 41.04327 | -75.68877 | 7051 ft | 290 kts | 116° |
| 2026-05-05 19:30 | 41.03634 | -75.66368 | 7030 ft | 290 kts | 116° |
| 2026-05-05 19:30 | 41.02934 | -75.63857 | 7026 ft | 290 kts | 116° |
| 2026-05-05 19:30 | 41.02242 | -75.61380 | 7021 ft | 291 kts | 116° |
| 2026-05-05 19:31 | 41.01534 | -75.58841 | 7014 ft | 291 kts | 116° |
| 2026-05-05 19:31 | 41.00843 | -75.56356 | 7009 ft | 290 kts | 116° |
| 2026-05-05 19:31 | 41.00144 | -75.53851 | 7012 ft | 291 kts | 116° |
| 2026-05-05 19:31 | 40.99440 | -75.51332 | 6997 ft | 291 kts | 116° |
| 2026-05-05 19:32 | 40.98738 | -75.48822 | 7010 ft | 290 kts | 116° |
| 2026-05-05 19:32 | 40.98042 | -75.46336 | 7006 ft | 291 kts | 116° |
| 2026-05-05 19:32 | 40.97333 | -75.43806 | 7004 ft | 291 kts | 116° |
| 2026-05-05 19:32 | 40.96632 | -75.41307 | 7002 ft | 290 kts | 116° |
| 2026-05-05 19:33 | 40.95928 | -75.38796 | 6999 ft | 290 kts | 116° |
| 2026-05-05 19:33 | 40.95235 | -75.36329 | 7007 ft | 289 kts | 117° |
| 2026-05-05 19:33 | 40.94530 | -75.33822 | 7000 ft | 288 kts | 116° |
| 2026-05-05 19:33 | 40.93821 | -75.31319 | 7005 ft | 290 kts | 116° |
| 2026-05-05 19:34 | 40.93118 | -75.28826 | 6998 ft | 290 kts | 116° |
| 2026-05-05 19:34 | 40.92415 | -75.26324 | 7005 ft | 290 kts | 116° |
| 2026-05-05 19:34 | 40.91708 | -75.23819 | 6992 ft | 291 kts | 116° |
| 2026-05-05 19:35 | 40.90302 | -75.18851 | 6968 ft | 291 kts | 116° |
| 2026-05-05 19:35 | 40.89595 | -75.16353 | 6975 ft | 290 kts | 116° |
| 2026-05-05 19:35 | 40.88877 | -75.13851 | 6965 ft | 291 kts | 117° |
| 2026-05-05 19:35 | 40.88164 | -75.11341 | 6940 ft | 292 kts | 116° |
| 2026-05-05 19:36 | 40.87463 | -75.08825 | 6939 ft | 290 kts | 116° |
| 2026-05-05 19:36 | 40.86765 | -75.06326 | 6975 ft | 291 kts | 116° |
| 2026-05-05 19:36 | 40.86057 | -75.03841 | 6961 ft | 287 kts | 116° |
| 2026-05-05 19:36 | 40.85355 | -75.01368 | 6979 ft | 288 kts | 116° |
| 2026-05-05 19:37 | 40.84656 | -74.98886 | 6974 ft | 289 kts | 116° |
| 2026-05-05 19:37 | 40.83944 | -74.96409 | 6976 ft | 288 kts | 117° |
| 2026-05-05 19:37 | 40.83209 | -74.93921 | 6969 ft | 289 kts | 116° |
| 2026-05-05 19:37 | 40.82535 | -74.91421 | 6950 ft | 290 kts | 114° |
| 2026-05-05 19:38 | 40.81871 | -74.88923 | 6958 ft | 289 kts | 115° |
| 2026-05-05 19:38 | 40.81408 | -74.87226 | 6955 ft | 289 kts | 115° |
| 2026-05-05 19:38 | 40.80703 | -74.83821 | 6980 ft | 293 kts | 107° |
| 2026-05-05 19:38 | 40.80393 | -74.82035 | 6988 ft | 294 kts | 109° |
| 2026-05-05 19:39 | 40.79684 | -74.78622 | 6993 ft | 292 kts | 111° |
| 2026-05-05 19:39 | 40.79309 | -74.76904 | 6995 ft | 291 kts | 111° |
| 2026-05-05 19:39 | 40.78768 | -74.74336 | 7001 ft | 291 kts | 110° |
| 2026-05-05 19:39 | 40.78242 | -74.71764 | 6980 ft | 290 kts | 110° |
| 2026-05-05 19:40 | 40.77709 | -74.69166 | 6816 ft | 284 kts | 110° |
| 2026-05-05 19:40 | 40.77202 | -74.66702 | 6612 ft | 275 kts | 110° |
| 2026-05-05 19:40 | 40.76701 | -74.64304 | 6555 ft | 278 kts | 111° |
| 2026-05-05 19:40 | 40.76184 | -74.61843 | 6528 ft | 278 kts | 110° |
| 2026-05-05 19:41 | 40.75681 | -74.59389 | 6518 ft | 278 kts | 109° |
| 2026-05-05 19:41 | 40.75592 | -74.56806 | 6410 ft | 282 kts | 81° |
| 2026-05-05 19:41 | 40.75768 | -74.54196 | 6116 ft | 283 kts | 97° |
| 2026-05-05 19:41 | 40.75450 | -74.51678 | 6301 ft | 273 kts | 112° |
| 2026-05-05 19:42 | 40.74767 | -74.49393 | 6217 ft | 271 kts | 120° |
| 2026-05-05 19:42 | 40.73961 | -74.47161 | 5757 ft | 271 kts | 122° |
| 2026-05-05 19:42 | 40.73132 | -74.44919 | 5143 ft | 272 kts | 120° |
| 2026-05-05 19:42 | 40.72461 | -74.42586 | 4022 ft | 268 kts | 113° |
| 2026-05-05 19:43 | 40.72000 | -74.40264 | 3475 ft | 242 kts | 108° |
| 2026-05-05 19:43 | 40.71696 | -74.38328 | 2996 ft | 206 kts | 108° |
| 2026-05-05 19:43 | 40.71441 | -74.36527 | 3001 ft | 184 kts | 108° |
| 2026-05-05 19:43 | 40.71234 | -74.34955 | 3036 ft | 165 kts | 108° |
| 2026-05-05 19:44 | 40.71056 | -74.33503 | 3007 ft | 156 kts | 107° |
| 2026-05-05 19:44 | 40.70950 | -74.32113 | 2955 ft | 147 kts | 104° |
| 2026-05-05 19:44 | 40.70890 | -74.30802 | 2903 ft | 143 kts | 104° |
| 2026-05-05 19:44 | 40.70817 | -74.29497 | 2673 ft | 143 kts | 102° |
| 2026-05-05 19:45 | 40.70827 | -74.28149 | 2338 ft | 146 kts | 96° |
| 2026-05-05 19:45 | 40.70844 | -74.26815 | 1950 ft | 149 kts | 99° |
| 2026-05-05 19:45 | 40.70802 | -74.25422 | 1623 ft | 149 kts | 104° |
| 2026-05-05 19:45 | 40.70708 | -74.24071 | 1323 ft | 148 kts | 103° |
| 2026-05-05 19:46 | 40.70588 | -74.22729 | 1033 ft | 148 kts | 102° |
| 2026-05-05 19:46 | 40.70519 | -74.21410 | 765 ft | 143 kts | 106° |
| 2026-05-05 19:46 | 40.70439 | -74.20156 | 516 ft | 131 kts | 104° |
| 2026-05-05 19:46 | 40.70344 | -74.18964 | 187 ft | 128 kts | 106° |
| 2026-05-05 19:47 | 40.70281 | -74.17831 | 32 ft | 117 kts | 105° |
| 2026-05-05 19:47 | 40.70216 | -74.17120 | 30 ft | 34 kts | 95° |
| 2026-05-05 19:47 | 40.70209 | -74.17009 | 30 ft | 2 kts | 94° |
| 2026-05-05 19:47 | 40.70207 | -74.16980 | 30 ft | 6 kts | 94° |
| 2026-05-05 19:48 | 40.70202 | -74.16899 | 30 ft | 12 kts | 94° |
| 2026-05-05 19:48 | 40.70176 | -74.16800 | 29 ft | 12 kts | 129° |
| 2026-05-05 19:48 | 40.70105 | -74.16751 | 29 ft | 11 kts | 171° |
| 2026-05-05 19:48 | 40.70028 | -74.16750 | 30 ft | 11 kts | 183° |
| 2026-05-05 19:49 | 40.69951 | -74.16758 | 30 ft | 11 kts | 186° |
| 2026-05-05 19:49 | 40.69875 | -74.16770 | 30 ft | 11 kts | 186° |
| 2026-05-05 19:49 | 40.69801 | -74.16788 | 30 ft | 10 kts | 199° |
| 2026-05-05 19:49 | 40.69737 | -74.16826 | 30 ft | 10 kts | 207° |
| 2026-05-05 19:50 | 40.69678 | -74.16867 | 30 ft | 9 kts | 212° |
| 2026-05-05 19:50 | 40.69650 | -74.16900 | 30 ft | 9 kts | 232° |
| 2026-05-05 19:50 | 40.69624 | -74.16985 | 30 ft | 11 kts | 251° |
| 2026-05-05 19:50 | 40.69596 | -74.17083 | 30 ft | 11 kts | 235° |
| 2026-05-05 19:51 | 40.69553 | -74.17088 | 30 ft | 6 kts | 178° |
| 2026-05-05 19:51 | 40.69523 | -74.17108 | 30 ft | 5 kts | 244° |
| 2026-05-05 19:51 | 40.69510 | -74.17177 | 30 ft | 10 kts | 264° |
| 2026-05-05 19:51 | 40.69519 | -74.17267 | 30 ft | 9 kts | 268° |
| 2026-05-05 19:52 | 40.69516 | -74.17287 | 30 ft | 0 kts | 255° |